sensor_id;sensor_type;location;lat;lon;timestamp;temperature;humidity
20459;DHT22;10388;52.314;7.938;2023-07-22T03:19:01;10.70;99.90
20459;DHT22;10388;52.314;7.938;2023-07-22T03:21:32;10.60;99.90
20459;DHT22;10388;52.314;7.938;2023-07-22T03:24:03;10.70;99.90
20459;DHT22;10388;52.314;7.938;2023-07-22T03:26:33;10.70;99.90
20459;DHT22;10388;52.314;7.938;2023-07-22T03:29:04;10.70;99.90
20459;DHT22;10388;52.314;7.938;2023-07-22T03:31:35;10.60;99.90
20459;DHT22;10388;52.314;7.938;2023-07-22T03:34:06;10.60;99.90
20459;DHT22;10388;52.314;7.938;2023-07-22T03:36:37;10.60;99.90
20459;DHT22;10388;52.314;7.938;2023-07-22T03:39:08;10.60;99.90
20459;DHT22;10388;52.314;7.938;2023-07-22T03:41:38;10.60;99.90
20459;DHT22;10388;52.314;7.938;2023-07-22T03:44:09;10.60;99.90
20459;DHT22;10388;52.314;7.938;2023-07-22T03:46:40;10.60;99.90
20459;DHT22;10388;52.314;7.938;2023-07-22T03:49:10;10.70;99.90
20459;DHT22;10388;52.314;7.938;2023-07-22T03:51:41;10.70;99.90
20459;DHT22;10388;52.314;7.938;2023-07-22T03:54:12;10.60;99.90
20459;DHT22;10388;52.314;7.938;2023-07-22T03:56:42;10.70;99.90
20459;DHT22;10388;52.314;7.938;2023-07-22T03:59:13;10.70;99.90
20459;DHT22;10388;52.314;7.938;2023-07-22T04:01:44;10.70;99.90
20459;DHT22;10388;52.314;7.938;2023-07-22T04:04:14;10.70;99.90
20459;DHT22;10388;52.314;7.938;2023-07-22T04:06:45;10.80;99.90
20459;DHT22;10388;52.314;7.938;2023-07-22T04:09:15;10.90;99.90
20459;DHT22;10388;52.314;7.938;2023-07-22T04:11:46;10.90;99.90
20459;DHT22;10388;52.314;7.938;2023-07-22T04:14:17;10.90;99.90
20459;DHT22;10388;52.314;7.938;2023-07-22T04:16:48;10.90;99.90
20459;DHT22;10388;52.314;7.938;2023-07-22T04:19:18;11.00;99.90
20459;DHT22;10388;52.314;7.938;2023-07-22T04:21:49;11.00;99.90
20459;DHT22;10388;52.314;7.938;2023-07-22T04:24:20;11.00;99.90
20459;DHT22;10388;52.314;7.938;2023-07-22T04:26:51;11.10;99.90
20459;DHT22;10388;52.314;7.938;2023-07-22T04:29:22;11.10;99.90
20459;DHT22;10388;52.314;7.938;2023-07-22T04:32:01;11.10;99.90
20459;DHT22;10388;52.314;7.938;2023-07-22T04:34:32;11.10;99.90
20459;DHT22;10388;52.314;7.938;2023-07-22T04:37:06;11.20;99.90
20459;DHT22;10388;52.314;7.938;2023-07-22T04:39:37;11.20;99.90
20459;DHT22;10388;52.314;7.938;2023-07-22T04:42:08;11.30;99.90
20459;DHT22;10388;52.314;7.938;2023-07-22T04:44:38;11.40;99.90
20459;DHT22;10388;52.314;7.938;2023-07-22T04:47:12;11.50;99.90
20459;DHT22;10388;52.314;7.938;2023-07-22T04:49:42;11.60;99.90
20459;DHT22;10388;52.314;7.938;2023-07-22T04:52:13;11.80;99.90
20459;DHT22;10388;52.314;7.938;2023-07-22T04:54:44;11.80;99.90
20459;DHT22;10388;52.314;7.938;2023-07-22T04:57:17;11.80;99.90
20459;DHT22;10388;52.314;7.938;2023-07-22T04:59:48;11.90;99.90
20459;DHT22;10388;52.314;7.938;2023-07-22T05:02:19;11.90;99.90
20459;DHT22;10388;52.314;7.938;2023-07-22T05:04:49;11.90;99.90
20459;DHT22;10388;52.314;7.938;2023-07-22T05:07:20;12.00;99.90
20459;DHT22;10388;52.314;7.938;2023-07-22T05:09:51;12.00;99.90
20459;DHT22;10388;52.314;7.938;2023-07-22T05:12:22;12.10;99.90
20459;DHT22;10388;52.314;7.938;2023-07-22T05:14:53;12.20;99.90
20459;DHT22;10388;52.314;7.938;2023-07-22T05:17:24;12.30;99.90
20459;DHT22;10388;52.314;7.938;2023-07-22T05:20:01;12.40;99.90
20459;DHT22;10388;52.314;7.938;2023-07-22T05:22:32;12.50;99.90
20459;DHT22;10388;52.314;7.938;2023-07-22T05:25:04;12.60;99.90
20459;DHT22;10388;52.314;7.938;2023-07-22T05:27:35;12.70;99.90
20459;DHT22;10388;52.314;7.938;2023-07-22T05:30:09;12.80;99.90
20459;DHT22;10388;52.314;7.938;2023-07-22T05:32:40;13.00;99.90
20459;DHT22;10388;52.314;7.938;2023-07-22T05:35:11;13.10;99.90
20459;DHT22;10388;52.314;7.938;2023-07-22T05:37:42;13.20;99.90
20459;DHT22;10388;52.314;7.938;2023-07-22T05:40:13;13.20;99.90
20459;DHT22;10388;52.314;7.938;2023-07-22T05:42:44;13.30;99.90
20459;DHT22;10388;52.314;7.938;2023-07-22T05:45:15;13.40;99.90
20459;DHT22;10388;52.314;7.938;2023-07-22T05:47:46;13.40;99.90
20459;DHT22;10388;52.314;7.938;2023-07-22T05:50:17;13.50;99.90
20459;DHT22;10388;52.314;7.938;2023-07-22T05:52:47;13.60;99.90
20459;DHT22;10388;52.314;7.938;2023-07-22T05:55:18;13.60;99.90
20459;DHT22;10388;52.314;7.938;2023-07-22T05:57:49;13.60;99.90
20459;DHT22;10388;52.314;7.938;2023-07-22T06:00:19;13.70;99.90
20459;DHT22;10388;52.314;7.938;2023-07-22T06:02:50;13.80;99.90
20459;DHT22;10388;52.314;7.938;2023-07-22T06:05:20;13.90;99.90
20459;DHT22;10388;52.314;7.938;2023-07-22T06:07:51;14.00;99.90
20459;DHT22;10388;52.314;7.938;2023-07-22T06:10:21;14.10;99.90
20459;DHT22;10388;52.314;7.938;2023-07-22T06:12:52;14.20;99.90
20459;DHT22;10388;52.314;7.938;2023-07-22T06:15:22;14.30;99.90
20459;DHT22;10388;52.314;7.938;2023-07-22T06:17:53;14.40;99.90
20459;DHT22;10388;52.314;7.938;2023-07-22T06:20:24;14.50;99.90
20459;DHT22;10388;52.314;7.938;2023-07-22T06:22:54;14.70;99.90
20459;DHT22;10388;52.314;7.938;2023-07-22T06:25:25;14.80;99.90
20459;DHT22;10388;52.314;7.938;2023-07-22T06:27:55;14.90;99.90
20459;DHT22;10388;52.314;7.938;2023-07-22T06:30:26;15.10;99.90
20459;DHT22;10388;52.314;7.938;2023-07-22T06:32:56;15.30;99.90
20459;DHT22;10388;52.314;7.938;2023-07-22T06:35:27;15.50;99.90
20459;DHT22;10388;52.314;7.938;2023-07-22T06:37:57;15.50;99.90
20459;DHT22;10388;52.314;7.938;2023-07-22T06:40:28;15.50;99.90
20459;DHT22;10388;52.314;7.938;2023-07-22T06:42:58;15.50;99.90
20459;DHT22;10388;52.314;7.938;2023-07-22T06:45:29;15.60;99.90
20459;DHT22;10388;52.314;7.938;2023-07-22T06:48:00;15.80;99.90
20459;DHT22;10388;52.314;7.938;2023-07-22T06:50:30;15.80;99.90
20459;DHT22;10388;52.314;7.938;2023-07-22T06:53:01;15.80;99.90
20459;DHT22;10388;52.314;7.938;2023-07-22T06:55:31;15.80;99.90
20459;DHT22;10388;52.314;7.938;2023-07-22T06:58:02;15.90;99.90
20459;DHT22;10388;52.314;7.938;2023-07-22T07:00:32;15.90;99.90
20459;DHT22;10388;52.314;7.938;2023-07-22T07:03:03;16.00;99.90
20459;DHT22;10388;52.314;7.938;2023-07-22T07:05:33;16.10;99.90
20459;DHT22;10388;52.314;7.938;2023-07-22T07:08:05;16.20;99.90
20459;DHT22;10388;52.314;7.938;2023-07-22T07:10:37;16.30;99.90
20459;DHT22;10388;52.314;7.938;2023-07-22T07:13:08;16.40;99.90
20459;DHT22;10388;52.314;7.938;2023-07-22T07:15:39;16.30;99.90
20459;DHT22;10388;52.314;7.938;2023-07-22T07:18:10;16.40;99.90
20459;DHT22;10388;52.314;7.938;2023-07-22T07:20:40;16.40;99.90
20459;DHT22;10388;52.314;7.938;2023-07-22T07:23:12;16.50;99.90
20459;DHT22;10388;52.314;7.938;2023-07-22T07:25:43;16.70;99.90
20459;DHT22;10388;52.314;7.938;2023-07-22T07:28:13;16.70;99.90
20459;DHT22;10388;52.314;7.938;2023-07-22T07:30:45;16.60;99.90
20459;DHT22;10388;52.314;7.938;2023-07-22T07:33:15;16.60;99.90
20459;DHT22;10388;52.314;7.938;2023-07-22T07:35:46;16.50;99.90
20459;DHT22;10388;52.314;7.938;2023-07-22T07:38:17;16.60;99.90
20459;DHT22;10388;52.314;7.938;2023-07-22T07:40:56;16.60;99.90
20459;DHT22;10388;52.314;7.938;2023-07-22T07:43:27;16.80;99.90
20459;DHT22;10388;52.314;7.938;2023-07-22T07:48:45;17.00;99.90
20459;DHT22;10388;52.314;7.938;2023-07-22T07:51:17;17.00;99.90
20459;DHT22;10388;52.314;7.938;2023-07-22T07:53:50;17.10;99.90
20459;DHT22;10388;52.314;7.938;2023-07-22T07:56:22;17.10;99.90
20459;DHT22;10388;52.314;7.938;2023-07-22T07:58:53;17.20;99.90
20459;DHT22;10388;52.314;7.938;2023-07-22T08:01:24;17.20;99.90
20459;DHT22;10388;52.314;7.938;2023-07-22T08:03:54;17.30;99.90
20459;DHT22;10388;52.314;7.938;2023-07-22T08:06:25;17.30;99.90
20459;DHT22;10388;52.314;7.938;2023-07-22T08:08:55;17.40;99.90
20459;DHT22;10388;52.314;7.938;2023-07-22T08:11:26;17.70;99.90
20459;DHT22;10388;52.314;7.938;2023-07-22T08:13:56;17.90;99.90
20459;DHT22;10388;52.314;7.938;2023-07-22T08:16:27;18.10;99.90
20459;DHT22;10388;52.314;7.938;2023-07-22T08:18:58;18.20;99.90
20459;DHT22;10388;52.314;7.938;2023-07-22T08:21:28;18.30;99.90
20459;DHT22;10388;52.314;7.938;2023-07-22T08:23:59;18.40;99.90
20459;DHT22;10388;52.314;7.938;2023-07-22T08:26:29;18.50;99.90
20459;DHT22;10388;52.314;7.938;2023-07-22T08:29:00;18.30;99.90
20459;DHT22;10388;52.314;7.938;2023-07-22T08:31:31;18.40;99.90
20459;DHT22;10388;52.314;7.938;2023-07-22T08:34:01;18.50;99.90
20459;DHT22;10388;52.314;7.938;2023-07-22T08:36:32;18.60;99.90
20459;DHT22;10388;52.314;7.938;2023-07-22T08:39:02;18.70;99.90
20459;DHT22;10388;52.314;7.938;2023-07-22T08:41:34;18.70;99.90
20459;DHT22;10388;52.314;7.938;2023-07-22T08:44:07;18.60;99.90
20459;DHT22;10388;52.314;7.938;2023-07-22T08:46:39;18.60;99.90
20459;DHT22;10388;52.314;7.938;2023-07-22T08:49:10;18.40;99.90
20459;DHT22;10388;52.314;7.938;2023-07-22T08:51:41;18.50;99.90
20459;DHT22;10388;52.314;7.938;2023-07-22T08:54:12;18.70;99.90
20459;DHT22;10388;52.314;7.938;2023-07-22T08:56:43;19.10;99.90
20459;DHT22;10388;52.314;7.938;2023-07-22T08:59:14;19.30;99.90
20459;DHT22;10388;52.314;7.938;2023-07-22T09:01:48;19.20;99.90
20459;DHT22;10388;52.314;7.938;2023-07-22T09:04:18;19.10;99.90
20459;DHT22;10388;52.314;7.938;2023-07-22T09:06:50;19.10;99.90
20459;DHT22;10388;52.314;7.938;2023-07-22T09:09:21;19.00;99.90
20459;DHT22;10388;52.314;7.938;2023-07-22T09:11:52;19.00;99.90
20459;DHT22;10388;52.314;7.938;2023-07-22T09:14:24;19.20;99.90
20459;DHT22;10388;52.314;7.938;2023-07-22T09:16:54;19.40;99.90
20459;DHT22;10388;52.314;7.938;2023-07-22T09:19:25;19.50;99.90
20459;DHT22;10388;52.314;7.938;2023-07-22T09:21:56;19.60;99.90
20459;DHT22;10388;52.314;7.938;2023-07-22T09:24:28;19.50;99.90
20459;DHT22;10388;52.314;7.938;2023-07-22T09:26:59;19.40;99.90
20459;DHT22;10388;52.314;7.938;2023-07-22T09:29:34;19.40;99.90
20459;DHT22;10388;52.314;7.938;2023-07-22T09:32:05;19.70;99.90
20459;DHT22;10388;52.314;7.938;2023-07-22T09:34:36;19.60;99.90
20459;DHT22;10388;52.314;7.938;2023-07-22T09:37:07;19.70;99.90
20459;DHT22;10388;52.314;7.938;2023-07-22T09:39:37;19.70;99.90
20459;DHT22;10388;52.314;7.938;2023-07-22T09:42:08;19.70;99.90
20459;DHT22;10388;52.314;7.938;2023-07-22T09:44:43;19.80;99.90
20459;DHT22;10388;52.314;7.938;2023-07-22T09:47:14;20.00;99.90
20459;DHT22;10388;52.314;7.938;2023-07-22T09:49:44;20.00;99.90
20459;DHT22;10388;52.314;7.938;2023-07-22T09:52:15;20.10;99.90
20459;DHT22;10388;52.314;7.938;2023-07-22T09:54:49;20.50;99.90
20459;DHT22;10388;52.314;7.938;2023-07-22T09:57:21;20.60;99.90
20459;DHT22;10388;52.314;7.938;2023-07-22T09:59:53;20.80;99.90
20459;DHT22;10388;52.314;7.938;2023-07-22T10:02:23;21.10;99.90
20459;DHT22;10388;52.314;7.938;2023-07-22T10:04:57;21.10;99.90
20459;DHT22;10388;52.314;7.938;2023-07-22T10:07:32;20.90;99.90
20459;DHT22;10388;52.314;7.938;2023-07-22T10:10:04;20.70;99.90
20459;DHT22;10388;52.314;7.938;2023-07-22T10:12:36;20.40;99.90
20459;DHT22;10388;52.314;7.938;2023-07-22T10:15:07;20.20;99.90
20459;DHT22;10388;52.314;7.938;2023-07-22T10:17:42;20.10;99.90
20459;DHT22;10388;52.314;7.938;2023-07-22T10:20:14;20.30;99.90
20459;DHT22;10388;52.314;7.938;2023-07-22T10:22:50;20.60;99.90
20459;DHT22;10388;52.314;7.938;2023-07-22T10:25:22;21.00;99.90
20459;DHT22;10388;52.314;7.938;2023-07-22T10:27:53;20.80;99.90
20459;DHT22;10388;52.314;7.938;2023-07-22T10:30:24;20.40;99.90
20459;DHT22;10388;52.314;7.938;2023-07-22T10:32:55;20.20;99.90
20459;DHT22;10388;52.314;7.938;2023-07-22T10:38:14;20.20;99.90
20459;DHT22;10388;52.314;7.938;2023-07-22T10:40:53;20.60;99.90
20459;DHT22;10388;52.314;7.938;2023-07-22T10:45:57;20.90;99.90
20459;DHT22;10388;52.314;7.938;2023-07-22T10:48:37;20.80;99.90
20459;DHT22;10388;52.314;7.938;2023-07-22T10:51:10;20.50;99.90
20459;DHT22;10388;52.314;7.938;2023-07-22T10:53:43;20.40;99.90
20459;DHT22;10388;52.314;7.938;2023-07-22T10:56:19;20.40;99.90
20459;DHT22;10388;52.314;7.938;2023-07-22T11:04:29;19.50;99.90
20459;DHT22;10388;52.314;7.938;2023-07-22T11:07:04;19.30;99.90
20459;DHT22;10388;52.314;7.938;2023-07-22T11:09:36;19.20;99.90
20459;DHT22;10388;52.314;7.938;2023-07-22T11:12:15;19.00;99.90
20459;DHT22;10388;52.314;7.938;2023-07-22T11:14:51;19.00;99.90
20459;DHT22;10388;52.314;7.938;2023-07-22T11:17:29;18.90;99.90
20459;DHT22;10388;52.314;7.938;2023-07-22T11:20:01;19.00;99.90
20459;DHT22;10388;52.314;7.938;2023-07-22T11:22:32;19.00;99.90
20459;DHT22;10388;52.314;7.938;2023-07-22T11:25:02;19.10;99.90
20459;DHT22;10388;52.314;7.938;2023-07-22T11:27:33;19.30;99.90
20459;DHT22;10388;52.314;7.938;2023-07-22T11:30:04;19.40;99.90
20459;DHT22;10388;52.314;7.938;2023-07-22T11:32:35;19.30;99.90
20459;DHT22;10388;52.314;7.938;2023-07-22T11:35:05;19.20;99.90
20459;DHT22;10388;52.314;7.938;2023-07-22T11:37:36;19.10;99.90
20459;DHT22;10388;52.314;7.938;2023-07-22T11:40:09;19.00;99.90
20459;DHT22;10388;52.314;7.938;2023-07-22T11:42:41;18.90;99.90
20459;DHT22;10388;52.314;7.938;2023-07-22T11:45:12;18.90;99.90
20459;DHT22;10388;52.314;7.938;2023-07-22T11:47:42;18.80;99.90
20459;DHT22;10388;52.314;7.938;2023-07-22T11:50:14;18.70;99.90
20459;DHT22;10388;52.314;7.938;2023-07-22T11:52:51;18.70;99.90
20459;DHT22;10388;52.314;7.938;2023-07-22T11:55:25;18.80;99.90
20459;DHT22;10388;52.314;7.938;2023-07-22T11:57:56;19.00;99.90
20459;DHT22;10388;52.314;7.938;2023-07-22T12:00:26;19.40;99.90
20459;DHT22;10388;52.314;7.938;2023-07-22T12:02:57;19.70;99.90
20459;DHT22;10388;52.314;7.938;2023-07-22T12:05:29;19.90;99.90
20459;DHT22;10388;52.314;7.938;2023-07-22T12:07:59;20.10;99.90
20459;DHT22;10388;52.314;7.938;2023-07-22T12:10:30;20.20;99.90
20459;DHT22;10388;52.314;7.938;2023-07-22T12:13:01;20.30;99.90
20459;DHT22;10388;52.314;7.938;2023-07-22T12:15:31;20.40;99.90
20459;DHT22;10388;52.314;7.938;2023-07-22T12:18:02;20.30;99.90
20459;DHT22;10388;52.314;7.938;2023-07-22T12:20:34;20.20;99.90
20459;DHT22;10388;52.314;7.938;2023-07-22T12:23:08;20.60;99.90
20459;DHT22;10388;52.314;7.938;2023-07-22T12:25:39;20.60;99.90
20459;DHT22;10388;52.314;7.938;2023-07-22T12:28:10;20.60;99.90
20459;DHT22;10388;52.314;7.938;2023-07-22T12:30:41;20.60;99.90
20459;DHT22;10388;52.314;7.938;2023-07-22T12:33:11;20.70;99.90
20459;DHT22;10388;52.314;7.938;2023-07-22T12:35:42;20.70;99.90
20459;DHT22;10388;52.314;7.938;2023-07-22T12:38:12;20.80;99.90
20459;DHT22;10388;52.314;7.938;2023-07-22T12:40:43;20.80;99.90
20459;DHT22;10388;52.314;7.938;2023-07-22T12:43:14;21.00;99.90
20459;DHT22;10388;52.314;7.938;2023-07-22T12:45:44;20.90;99.90
20459;DHT22;10388;52.314;7.938;2023-07-22T12:48:15;20.80;99.90
20459;DHT22;10388;52.314;7.938;2023-07-22T12:50:46;20.70;99.90
20459;DHT22;10388;52.314;7.938;2023-07-22T12:53:19;20.50;99.90
20459;DHT22;10388;52.314;7.938;2023-07-22T12:55:49;20.60;99.90
20459;DHT22;10388;52.314;7.938;2023-07-22T12:58:20;20.60;99.90
20459;DHT22;10388;52.314;7.938;2023-07-22T13:00:51;20.70;99.90
20459;DHT22;10388;52.314;7.938;2023-07-22T13:03:21;20.50;99.90
20459;DHT22;10388;52.314;7.938;2023-07-22T13:05:52;20.40;99.90
20459;DHT22;10388;52.314;7.938;2023-07-22T13:08:22;20.30;99.90
20459;DHT22;10388;52.314;7.938;2023-07-22T13:10:53;20.30;99.90
20459;DHT22;10388;52.314;7.938;2023-07-22T13:13:23;20.40;99.90
20459;DHT22;10388;52.314;7.938;2023-07-22T13:15:54;20.50;99.90
20459;DHT22;10388;52.314;7.938;2023-07-22T13:18:24;20.60;99.90
20459;DHT22;10388;52.314;7.938;2023-07-22T13:20:55;20.70;99.90
20459;DHT22;10388;52.314;7.938;2023-07-22T13:23:25;20.80;99.90
20459;DHT22;10388;52.314;7.938;2023-07-22T13:25:56;20.70;99.90
20459;DHT22;10388;52.314;7.938;2023-07-22T13:28:26;20.60;99.90
20459;DHT22;10388;52.314;7.938;2023-07-22T13:30:57;20.70;99.90
20459;DHT22;10388;52.314;7.938;2023-07-22T13:33:27;20.70;99.90
20459;DHT22;10388;52.314;7.938;2023-07-22T13:35:58;20.80;99.90
20459;DHT22;10388;52.314;7.938;2023-07-22T13:38:29;20.90;99.90
20459;DHT22;10388;52.314;7.938;2023-07-22T13:40:59;20.80;99.90
20459;DHT22;10388;52.314;7.938;2023-07-22T13:43:29;20.70;99.90
20459;DHT22;10388;52.314;7.938;2023-07-22T13:46:00;20.50;99.90
20459;DHT22;10388;52.314;7.938;2023-07-22T13:48:31;20.30;99.90
20459;DHT22;10388;52.314;7.938;2023-07-22T13:51:01;20.10;99.90
20459;DHT22;10388;52.314;7.938;2023-07-22T13:53:31;19.90;99.90
20459;DHT22;10388;52.314;7.938;2023-07-22T13:56:02;19.80;99.90
20459;DHT22;10388;52.314;7.938;2023-07-22T13:58:33;19.60;99.90
20459;DHT22;10388;52.314;7.938;2023-07-22T14:01:04;19.50;99.90
20459;DHT22;10388;52.314;7.938;2023-07-22T14:03:34;19.50;99.90
20459;DHT22;10388;52.314;7.938;2023-07-22T14:06:05;19.40;99.90
20459;DHT22;10388;52.314;7.938;2023-07-22T14:08:35;19.40;99.90
20459;DHT22;10388;52.314;7.938;2023-07-22T14:11:06;19.30;99.90
20459;DHT22;10388;52.314;7.938;2023-07-22T14:13:36;19.30;99.90
20459;DHT22;10388;52.314;7.938;2023-07-22T14:16:07;19.40;99.90
20459;DHT22;10388;52.314;7.938;2023-07-22T14:18:37;19.30;99.90
20459;DHT22;10388;52.314;7.938;2023-07-22T14:21:08;19.20;99.90
20459;DHT22;10388;52.314;7.938;2023-07-22T14:23:41;19.20;99.90
20459;DHT22;10388;52.314;7.938;2023-07-22T14:26:12;19.20;99.90
20459;DHT22;10388;52.314;7.938;2023-07-22T14:28:42;19.10;99.90
20459;DHT22;10388;52.314;7.938;2023-07-22T14:31:13;18.80;99.90
20459;DHT22;10388;52.314;7.938;2023-07-22T14:33:43;18.60;99.90
20459;DHT22;10388;52.314;7.938;2023-07-22T14:36:14;18.50;99.90
20459;DHT22;10388;52.314;7.938;2023-07-22T14:38:44;18.40;99.90
20459;DHT22;10388;52.314;7.938;2023-07-22T14:41:16;18.50;99.90
20459;DHT22;10388;52.314;7.938;2023-07-22T14:43:47;18.60;99.90
20459;DHT22;10388;52.314;7.938;2023-07-22T14:46:18;18.80;99.90
20459;DHT22;10388;52.314;7.938;2023-07-22T14:48:48;18.80;99.90
20459;DHT22;10388;52.314;7.938;2023-07-22T14:51:19;18.90;99.90
20459;DHT22;10388;52.314;7.938;2023-07-22T14:53:49;18.90;99.90
20459;DHT22;10388;52.314;7.938;2023-07-22T14:56:20;18.90;99.90
20459;DHT22;10388;52.314;7.938;2023-07-22T14:58:50;19.00;99.90
20459;DHT22;10388;52.314;7.938;2023-07-22T15:01:21;19.00;99.90
20459;DHT22;10388;52.314;7.938;2023-07-22T15:03:52;19.00;99.90
20459;DHT22;10388;52.314;7.938;2023-07-22T15:06:23;19.00;99.90
20459;DHT22;10388;52.314;7.938;2023-07-22T15:08:53;19.00;99.90
20459;DHT22;10388;52.314;7.938;2023-07-22T15:11:24;19.10;99.90
20459;DHT22;10388;52.314;7.938;2023-07-22T15:13:54;19.30;99.90
20459;DHT22;10388;52.314;7.938;2023-07-22T15:16:25;19.40;99.90
20459;DHT22;10388;52.314;7.938;2023-07-22T15:18:55;19.40;99.90
20459;DHT22;10388;52.314;7.938;2023-07-22T15:21:26;19.30;99.90
20459;DHT22;10388;52.314;7.938;2023-07-22T15:23:56;19.30;99.90
20459;DHT22;10388;52.314;7.938;2023-07-22T15:26:27;19.30;99.90
20459;DHT22;10388;52.314;7.938;2023-07-22T15:28:58;19.30;99.90
20459;DHT22;10388;52.314;7.938;2023-07-22T15:31:28;19.20;99.90
20459;DHT22;10388;52.314;7.938;2023-07-22T15:33:59;19.00;99.90
20459;DHT22;10388;52.314;7.938;2023-07-22T15:36:29;19.00;99.90
20459;DHT22;10388;52.314;7.938;2023-07-22T15:39:00;19.00;99.90
20459;DHT22;10388;52.314;7.938;2023-07-22T15:41:30;18.80;99.90
20459;DHT22;10388;52.314;7.938;2023-07-22T15:44:01;18.90;99.90
20459;DHT22;10388;52.314;7.938;2023-07-22T15:46:31;18.70;99.90
20459;DHT22;10388;52.314;7.938;2023-07-22T15:49:02;18.70;99.90
20459;DHT22;10388;52.314;7.938;2023-07-22T15:51:32;18.70;99.90
20459;DHT22;10388;52.314;7.938;2023-07-22T15:54:03;18.60;99.90
20459;DHT22;10388;52.314;7.938;2023-07-22T15:56:34;18.50;99.90
20459;DHT22;10388;52.314;7.938;2023-07-22T15:59:05;18.30;99.90
20459;DHT22;10388;52.314;7.938;2023-07-22T16:01:35;18.10;99.90
20459;DHT22;10388;52.314;7.938;2023-07-22T16:04:06;18.00;99.90
20459;DHT22;10388;52.314;7.938;2023-07-22T16:06:37;18.00;99.90
20459;DHT22;10388;52.314;7.938;2023-07-22T16:09:08;18.10;99.90
20459;DHT22;10388;52.314;7.938;2023-07-22T16:11:38;18.00;99.90
20459;DHT22;10388;52.314;7.938;2023-07-22T16:14:09;18.10;99.90
20459;DHT22;10388;52.314;7.938;2023-07-22T16:16:40;18.30;99.90
20459;DHT22;10388;52.314;7.938;2023-07-22T16:19:10;18.40;99.90
20459;DHT22;10388;52.314;7.938;2023-07-22T16:21:41;18.40;99.90
20459;DHT22;10388;52.314;7.938;2023-07-22T16:24:11;18.30;99.90
20459;DHT22;10388;52.314;7.938;2023-07-22T16:26:42;18.10;99.90
20459;DHT22;10388;52.314;7.938;2023-07-22T16:29:12;18.00;99.90
20459;DHT22;10388;52.314;7.938;2023-07-22T16:31:43;17.80;99.90
20459;DHT22;10388;52.314;7.938;2023-07-22T16:34:14;17.70;99.90
20459;DHT22;10388;52.314;7.938;2023-07-22T16:36:44;17.70;99.90
20459;DHT22;10388;52.314;7.938;2023-07-22T16:39:15;17.70;99.90
20459;DHT22;10388;52.314;7.938;2023-07-22T16:41:45;17.70;99.90
20459;DHT22;10388;52.314;7.938;2023-07-22T16:44:15;17.70;99.90
20459;DHT22;10388;52.314;7.938;2023-07-22T16:46:47;17.60;99.90
20459;DHT22;10388;52.314;7.938;2023-07-22T16:49:18;17.60;99.90
20459;DHT22;10388;52.314;7.938;2023-07-22T16:51:48;17.50;99.90
20459;DHT22;10388;52.314;7.938;2023-07-22T16:54:19;17.40;99.90
20459;DHT22;10388;52.314;7.938;2023-07-22T16:56:49;17.40;99.90
20459;DHT22;10388;52.314;7.938;2023-07-22T16:59:20;17.40;99.90
20459;DHT22;10388;52.314;7.938;2023-07-22T17:01:50;17.40;99.90
20459;DHT22;10388;52.314;7.938;2023-07-22T17:04:21;17.50;99.90
20459;DHT22;10388;52.314;7.938;2023-07-22T17:06:51;17.40;99.90
20459;DHT22;10388;52.314;7.938;2023-07-22T17:09:22;17.40;99.90
20459;DHT22;10388;52.314;7.938;2023-07-22T17:11:52;17.50;99.90
20459;DHT22;10388;52.314;7.938;2023-07-22T17:14:23;17.40;99.90
20459;DHT22;10388;52.314;7.938;2023-07-22T17:16:53;17.30;99.90
20459;DHT22;10388;52.314;7.938;2023-07-22T17:19:24;17.30;99.90
20459;DHT22;10388;52.314;7.938;2023-07-22T17:21:55;17.30;99.90
20459;DHT22;10388;52.314;7.938;2023-07-22T17:24:25;17.30;99.90
20459;DHT22;10388;52.314;7.938;2023-07-22T17:26:56;17.30;99.90
20459;DHT22;10388;52.314;7.938;2023-07-22T17:29:27;17.30;99.90
20459;DHT22;10388;52.314;7.938;2023-07-22T17:31:57;17.40;99.90
20459;DHT22;10388;52.314;7.938;2023-07-22T17:34:28;17.40;99.90
20459;DHT22;10388;52.314;7.938;2023-07-22T17:36:58;17.40;99.90
20459;DHT22;10388;52.314;7.938;2023-07-22T17:39:29;17.40;99.90
20459;DHT22;10388;52.314;7.938;2023-07-22T17:42:00;17.40;99.90
20459;DHT22;10388;52.314;7.938;2023-07-22T17:44:31;17.30;99.90
20459;DHT22;10388;52.314;7.938;2023-07-22T17:47:01;17.40;99.90
20459;DHT22;10388;52.314;7.938;2023-07-22T17:49:32;17.40;99.90
20459;DHT22;10388;52.314;7.938;2023-07-22T17:52:02;17.40;99.90
20459;DHT22;10388;52.314;7.938;2023-07-22T17:54:33;17.40;99.90
20459;DHT22;10388;52.314;7.938;2023-07-22T17:57:04;17.20;99.90
20459;DHT22;10388;52.314;7.938;2023-07-22T17:59:34;17.10;99.90
20459;DHT22;10388;52.314;7.938;2023-07-22T18:02:05;17.10;99.90
20459;DHT22;10388;52.314;7.938;2023-07-22T18:04:36;17.10;99.90
20459;DHT22;10388;52.314;7.938;2023-07-22T18:07:07;17.10;99.90
20459;DHT22;10388;52.314;7.938;2023-07-22T18:09:37;17.10;99.90
20459;DHT22;10388;52.314;7.938;2023-07-22T18:12:08;17.10;99.90
20459;DHT22;10388;52.314;7.938;2023-07-22T18:14:42;17.00;99.90
20459;DHT22;10388;52.314;7.938;2023-07-22T18:17:12;16.90;99.90
20459;DHT22;10388;52.314;7.938;2023-07-22T18:19:43;16.90;99.90
20459;DHT22;10388;52.314;7.938;2023-07-22T18:22:13;17.00;99.90
20459;DHT22;10388;52.314;7.938;2023-07-22T18:24:45;17.00;99.90
20459;DHT22;10388;52.314;7.938;2023-07-22T18:27:16;17.00;99.90
20459;DHT22;10388;52.314;7.938;2023-07-22T18:29:46;17.00;99.90
20459;DHT22;10388;52.314;7.938;2023-07-22T18:32:17;17.00;99.90
20459;DHT22;10388;52.314;7.938;2023-07-22T18:34:47;17.00;99.90
20459;DHT22;10388;52.314;7.938;2023-07-22T18:37:19;16.90;99.90
20459;DHT22;10388;52.314;7.938;2023-07-22T18:39:49;16.90;99.90
20459;DHT22;10388;52.314;7.938;2023-07-22T18:42:21;16.90;99.90
20459;DHT22;10388;52.314;7.938;2023-07-22T18:44:51;16.90;99.90
20459;DHT22;10388;52.314;7.938;2023-07-22T18:47:25;16.90;99.90
20459;DHT22;10388;52.314;7.938;2023-07-22T18:49:55;16.80;99.90
20459;DHT22;10388;52.314;7.938;2023-07-22T18:52:26;16.80;99.90
20459;DHT22;10388;52.314;7.938;2023-07-22T18:54:56;16.80;99.90
20459;DHT22;10388;52.314;7.938;2023-07-22T18:57:27;16.80;99.90
20459;DHT22;10388;52.314;7.938;2023-07-22T18:59:57;16.80;99.90
20459;DHT22;10388;52.314;7.938;2023-07-22T19:02:28;16.80;99.90
20459;DHT22;10388;52.314;7.938;2023-07-22T19:04:58;16.80;99.90
20459;DHT22;10388;52.314;7.938;2023-07-22T19:07:29;16.70;99.90
20459;DHT22;10388;52.314;7.938;2023-07-22T19:10:00;16.70;99.90
20459;DHT22;10388;52.314;7.938;2023-07-22T19:12:30;16.60;99.90
20459;DHT22;10388;52.314;7.938;2023-07-22T19:15:01;16.60;99.90
20459;DHT22;10388;52.314;7.938;2023-07-22T19:17:31;16.70;99.90
20459;DHT22;10388;52.314;7.938;2023-07-22T19:20:02;16.60;99.90
20459;DHT22;10388;52.314;7.938;2023-07-22T19:22:33;16.60;99.90
20459;DHT22;10388;52.314;7.938;2023-07-22T19:25:04;16.60;99.90